createdAt,value
2018-05-18T00:02:02.872Z,27.17
2018-05-18T00:04:30.776Z,15.63
2018-05-18T00:06:58.304Z,18.07
2018-05-18T00:09:26.711Z,22.47
2018-05-18T00:11:54.258Z,18.73
2018-05-18T00:14:21.830Z,17.13
2018-05-18T00:16:49.357Z,18.07
2018-05-18T00:19:17.760Z,21.43
2018-05-18T00:21:45.287Z,18.67
2018-05-18T00:24:13.714Z,24.07
2018-05-18T00:26:41.249Z,14.57
2018-05-18T00:29:08.758Z,21.63
2018-05-18T00:31:36.294Z,20.73
2018-05-18T00:34:03.942Z,17.83
2018-05-18T00:36:31.502Z,17.07
2018-05-18T00:38:59.040Z,18.57
2018-05-18T00:41:26.554Z,16.00
2018-05-18T00:43:54.128Z,22.03
2018-05-18T00:46:21.662Z,26.77
2018-05-18T00:48:49.192Z,19.57
2018-05-18T00:51:16.704Z,19.37
2018-05-18T00:53:44.235Z,18.97
2018-05-18T00:56:11.758Z,23.43
2018-05-18T00:58:39.280Z,18.37
2018-05-18T01:01:06.792Z,18.87
2018-05-18T01:03:34.331Z,25.23
2018-05-18T01:06:01.872Z,18.77
2018-05-18T01:08:29.398Z,18.43
2018-05-18T01:10:56.942Z,15.47
2018-05-18T01:13:24.466Z,17.13
2018-05-18T01:15:52.005Z,19.53
2018-05-18T01:18:20.300Z,20.53
2018-05-18T01:20:47.823Z,18.93
2018-05-18T01:23:15.339Z,23.30
2018-05-18T01:25:42.842Z,16.83
2018-05-18T01:28:11.122Z,23.13
2018-05-18T01:30:39.404Z,20.90
2018-05-18T01:33:07.698Z,13.93
2018-05-18T01:35:35.244Z,16.60
2018-05-18T01:38:02.795Z,22.63
2018-05-18T01:40:31.270Z,14.00
2018-05-18T01:42:59.562Z,21.33
2018-05-18T01:45:27.224Z,21.70
2018-05-18T01:47:54.796Z,23.27
2018-05-18T01:50:22.308Z,20.93
2018-05-18T01:52:49.838Z,18.07
2018-05-18T01:55:17.579Z,18.40
2018-05-18T01:57:45.224Z,17.53
2018-05-18T02:00:12.751Z,21.67
2018-05-18T02:02:40.288Z,25.67
2018-05-18T02:05:07.816Z,19.63
2018-05-18T02:07:35.482Z,19.87
2018-05-18T02:10:03.021Z,23.73
2018-05-18T02:12:30.771Z,26.43
2018-05-18T02:14:58.306Z,21.47
2018-05-18T02:17:25.835Z,18.87
2018-05-18T02:19:53.354Z,22.20
2018-05-18T02:22:21.662Z,19.77
2018-05-18T02:24:49.202Z,23.20
2018-05-18T02:27:16.725Z,23.47
2018-05-18T02:29:44.484Z,15.50
2018-05-18T02:32:12.795Z,18.73
2018-05-18T02:34:40.360Z,17.63
2018-05-18T02:37:07.888Z,26.37
2018-05-18T02:39:36.190Z,27.50
2018-05-18T02:42:03.714Z,17.30
2018-05-18T02:44:31.231Z,22.67
2018-05-18T02:46:58.768Z,21.53
2018-05-18T02:49:27.221Z,14.50
2018-05-18T02:51:54.779Z,15.67
2018-05-18T02:54:22.324Z,21.63
2018-05-18T02:56:49.824Z,23.70
2018-05-18T02:59:17.348Z,18.67
2018-05-18T03:01:46.477Z,25.87
2018-05-18T03:04:14.034Z,20.03
2018-05-18T03:06:42.332Z,19.53
2018-05-18T03:09:09.869Z,17.30
2018-05-18T03:11:37.394Z,25.37
2018-05-18T03:14:04.934Z,13.97
2018-05-18T03:16:32.453Z,20.07
2018-05-18T03:18:59.971Z,20.43
2018-05-18T03:21:27.670Z,15.80
2018-05-18T03:23:55.189Z,17.30
2018-05-18T03:26:22.746Z,26.00
2018-05-18T03:28:51.076Z,21.03
2018-05-18T03:31:18.634Z,18.57
2018-05-18T03:33:46.163Z,23.70
2018-05-18T03:36:14.467Z,19.63
2018-05-18T03:38:42.024Z,19.60
2018-05-18T03:41:09.536Z,19.07
2018-05-18T03:43:37.201Z,22.17
2018-05-18T03:46:04.809Z,19.43
2018-05-18T03:48:32.348Z,23.87
2018-05-18T03:51:00.641Z,18.90
2018-05-18T03:53:28.184Z,18.37
2018-05-18T03:55:55.751Z,23.03
2018-05-18T03:58:23.308Z,18.50
2018-05-18T04:00:50.858Z,19.93
2018-05-18T04:03:30.254Z,22.23
2018-05-18T04:06:09.486Z,18.33
2018-05-18T04:08:52.551Z,25.23
2018-05-18T04:11:20.853Z,20.30
2018-05-18T04:13:48.422Z,24.00
2018-05-18T04:16:15.961Z,26.63
2018-05-18T04:18:43.517Z,20.93
2018-05-18T04:21:11.062Z,28.73
2018-05-18T04:23:38.590Z,30.17
2018-05-18T04:26:06.186Z,19.73
2018-05-18T04:28:33.706Z,18.90
2018-05-18T04:31:01.230Z,23.13
2018-05-18T04:33:28.748Z,25.17
2018-05-18T04:35:57.237Z,20.33
2018-05-18T04:38:24.765Z,17.43
2018-05-18T04:40:52.344Z,24.33
2018-05-18T04:43:20.817Z,21.97
2018-05-18T04:45:49.147Z,18.07
2018-05-18T04:48:16.690Z,21.83
2018-05-18T04:50:44.208Z,26.47
2018-05-18T04:53:11.743Z,24.00
2018-05-18T04:55:39.273Z,22.03
2018-05-18T04:58:06.796Z,19.67
2018-05-18T05:00:35.095Z,22.40
2018-05-18T05:03:02.650Z,21.83
2018-05-18T05:05:30.263Z,20.73
2018-05-18T05:07:57.732Z,23.27
2018-05-18T05:10:25.249Z,19.23
2018-05-18T05:12:52.774Z,24.97
2018-05-18T05:15:20.296Z,21.63
2018-05-18T05:17:48.042Z,22.90
2018-05-18T05:20:15.677Z,22.10
2018-05-18T05:22:43.234Z,21.97
2018-05-18T05:25:10.758Z,19.57
2018-05-18T05:27:38.300Z,17.37
2018-05-18T05:30:05.828Z,22.53
2018-05-18T05:32:33.360Z,16.23
2018-05-18T05:35:00.903Z,24.07
2018-05-18T05:37:28.422Z,21.80
2018-05-18T05:39:56.716Z,17.33
2018-05-18T05:42:24.248Z,20.27
2018-05-18T05:44:51.926Z,21.47
2018-05-18T05:47:19.444Z,23.87
2018-05-18T05:49:46.979Z,19.33
2018-05-18T05:52:14.527Z,23.57
2018-05-18T05:54:42.835Z,20.17
2018-05-18T05:57:10.786Z,23.07
2018-05-18T05:59:38.304Z,23.57
2018-05-18T06:02:05.827Z,24.90
2018-05-18T06:04:33.339Z,25.03
2018-05-18T06:07:00.890Z,18.13
2018-05-18T06:09:29.180Z,18.30
2018-05-18T06:11:57.464Z,20.33
2018-05-18T06:14:25.811Z,25.13
2018-05-18T06:16:53.355Z,27.17
2018-05-18T06:19:20.925Z,17.63
2018-05-18T06:21:48.452Z,23.93
2018-05-18T06:24:15.984Z,22.97
2018-05-18T06:26:43.516Z,20.37
2018-05-18T06:29:11.833Z,35.37
2018-05-18T06:31:39.478Z,43.23
2018-05-18T06:34:07.007Z,53.10
2018-05-18T06:36:34.621Z,39.83
2018-05-18T06:39:02.143Z,20.80
2018-05-18T06:41:30.444Z,35.23
2018-05-18T06:43:57.978Z,29.43
2018-05-18T06:46:25.527Z,37.30
2018-05-18T06:48:53.820Z,34.63
2018-05-18T06:51:21.358Z,21.20
2018-05-18T06:53:48.902Z,22.23
2018-05-18T06:56:16.420Z,18.77
2018-05-18T06:58:44.056Z,26.27
2018-05-18T07:01:11.495Z,23.20
2018-05-18T07:03:39.036Z,24.93
2018-05-18T07:06:06.559Z,23.03
2018-05-18T07:08:34.386Z,18.30
2018-05-18T07:11:01.911Z,20.57
2018-05-18T07:13:29.414Z,23.53
2018-05-18T07:15:56.956Z,25.30
2018-05-18T07:18:24.485Z,29.50
2018-05-18T07:20:52.012Z,20.27
2018-05-18T07:23:19.643Z,21.87
2018-05-18T07:25:47.279Z,21.33
2018-05-18T07:28:14.829Z,24.40
2018-05-18T07:30:42.512Z,20.33
2018-05-18T07:33:10.043Z,19.37
2018-05-18T07:35:37.576Z,19.43
2018-05-18T07:38:05.168Z,20.63
2018-05-18T07:40:32.786Z,20.37
2018-05-18T07:43:01.105Z,21.03
2018-05-18T07:45:28.628Z,19.80
2018-05-18T07:47:56.250Z,17.63
2018-05-18T07:50:24.535Z,19.77
2018-05-18T07:52:52.086Z,17.20
2018-05-18T07:55:19.608Z,24.13
2018-05-18T07:57:47.139Z,18.80
2018-05-18T08:00:14.661Z,19.30
2018-05-18T08:02:42.216Z,26.10
2018-05-18T08:05:10.506Z,22.93
2018-05-18T08:07:38.013Z,37.13
2018-05-18T08:10:05.563Z,29.03
2018-05-18T08:12:33.276Z,21.67
2018-05-18T08:15:01.632Z,22.70
2018-05-18T08:17:29.197Z,23.37
2018-05-18T08:19:57.503Z,40.73
2018-05-18T08:22:25.160Z,19.63
2018-05-18T08:24:52.713Z,21.53
2018-05-18T08:27:23.173Z,37.13
2018-05-18T08:29:50.713Z,36.07
2018-05-18T08:32:18.262Z,26.20
2018-05-18T08:34:45.872Z,18.17
2018-05-18T08:37:13.403Z,20.00
2018-05-18T08:39:40.939Z,20.47
2018-05-18T08:42:08.499Z,17.40
2018-05-18T08:44:36.121Z,16.93
2018-05-18T08:47:03.651Z,26.30
2018-05-18T08:49:31.194Z,19.87
2018-05-18T08:51:58.701Z,21.53
2018-05-18T08:54:26.258Z,24.13
2018-05-18T08:56:53.798Z,21.43
2018-05-18T08:59:21.330Z,18.33
2018-05-18T09:01:48.870Z,16.33
2018-05-18T09:04:16.556Z,17.73
2018-05-18T09:06:44.416Z,23.07
2018-05-18T09:09:11.949Z,14.93
2018-05-18T09:11:39.488Z,18.07
2018-05-18T09:14:07.032Z,16.50
2018-05-18T09:16:34.564Z,24.17
2018-05-18T09:19:02.111Z,20.90
2018-05-18T09:21:29.625Z,19.83
2018-05-18T09:23:57.298Z,20.30
2018-05-18T09:26:25.657Z,27.13
2018-05-18T09:28:53.149Z,23.97
2018-05-18T09:31:20.662Z,18.53
2018-05-18T09:33:48.200Z,21.10
2018-05-18T09:36:15.742Z,22.60
2018-05-18T09:38:43.260Z,15.53
2018-05-18T09:41:11.692Z,28.23
2018-05-18T09:43:39.322Z,15.57
2018-05-18T09:46:06.864Z,22.53
2018-05-18T09:48:35.344Z,21.87
2018-05-18T09:51:02.913Z,20.33
2018-05-18T09:53:30.430Z,17.03
2018-05-18T09:55:57.946Z,14.37
2018-05-18T09:58:25.470Z,16.00
2018-05-18T10:00:53.176Z,21.97
2018-05-18T10:03:20.734Z,17.53
2018-05-18T10:05:48.275Z,16.03
2018-05-18T10:08:15.837Z,18.40
2018-05-18T10:10:43.617Z,31.63
2018-05-18T10:13:11.157Z,24.33
2018-05-18T10:15:38.699Z,15.57
2018-05-18T10:18:06.417Z,20.73
2018-05-18T10:20:33.932Z,19.60
2018-05-18T10:23:01.456Z,25.43
2018-05-18T10:25:29.111Z,12.60
2018-05-18T10:27:56.639Z,17.07
2018-05-18T10:30:31.673Z,15.53
2018-05-18T10:32:59.212Z,16.47
2018-05-18T10:35:26.733Z,22.87
2018-05-18T10:37:54.265Z,16.13
2018-05-18T10:40:21.781Z,22.03
2018-05-18T10:42:49.299Z,17.40
2018-05-18T10:45:16.888Z,21.93
2018-05-18T10:47:44.392Z,16.90
2018-05-18T10:50:11.923Z,17.53
2018-05-18T10:52:39.602Z,13.80
2018-05-18T10:55:07.131Z,19.13
2018-05-18T10:57:34.669Z,21.13
2018-05-18T11:00:02.216Z,17.70
2018-05-18T11:02:29.736Z,13.80
2018-05-18T11:04:57.287Z,22.37
2018-05-18T11:07:24.843Z,13.73
2018-05-18T11:09:52.389Z,16.00
2018-05-18T11:12:19.933Z,17.87
2018-05-18T11:14:48.221Z,18.00
2018-05-18T11:17:16.515Z,18.87
2018-05-18T11:19:44.049Z,20.27
2018-05-18T11:22:11.709Z,16.60
2018-05-18T11:24:39.271Z,16.50
2018-05-18T11:27:07.571Z,16.90
2018-05-18T11:29:35.111Z,15.10
2018-05-18T11:32:02.791Z,16.97
2018-05-18T11:34:30.315Z,16.83
2018-05-18T11:36:58.731Z,18.30
2018-05-18T11:39:26.257Z,17.77
2018-05-18T11:41:54.565Z,19.13
2018-05-18T11:44:22.195Z,18.47
2018-05-18T11:46:50.511Z,13.87
2018-05-18T11:49:18.108Z,19.03
2018-05-18T11:51:45.668Z,18.20
2018-05-18T11:54:13.193Z,14.53
2018-05-18T11:56:40.718Z,19.07
2018-05-18T11:59:08.250Z,15.90
2018-05-18T12:01:35.843Z,20.27
2018-05-18T12:04:03.441Z,19.53
2018-05-18T12:06:30.950Z,13.77
2018-05-18T12:08:59.252Z,17.63
2018-05-18T12:11:26.765Z,16.80
2018-05-18T12:13:54.305Z,14.63
2018-05-18T12:16:21.866Z,13.83
2018-05-18T12:18:49.410Z,17.20
2018-05-18T12:21:17.068Z,21.87
2018-05-18T12:23:44.600Z,15.37
2018-05-18T12:26:12.161Z,15.63
2018-05-18T12:28:39.741Z,14.57
2018-05-18T12:31:07.283Z,15.20
2018-05-18T12:33:34.834Z,12.80
2018-05-18T12:36:02.366Z,15.10
2018-05-18T12:38:29.995Z,17.50
2018-05-18T12:40:59.060Z,14.77
2018-05-18T12:43:26.628Z,16.10
2018-05-18T12:45:54.168Z,15.50
2018-05-18T12:48:21.708Z,14.33
2018-05-18T12:50:49.397Z,15.83
2018-05-18T12:53:16.920Z,17.47
2018-05-18T12:55:45.254Z,17.77
2018-05-18T12:58:12.790Z,13.03
2018-05-18T13:00:40.316Z,14.13
2018-05-18T13:03:08.624Z,14.03
2018-05-18T13:05:37.568Z,10.73
2018-05-18T13:08:05.149Z,14.57
2018-05-18T13:10:32.675Z,10.93
2018-05-18T13:13:00.226Z,16.23
2018-05-18T13:15:27.763Z,14.47
2018-05-18T13:17:55.283Z,13.73
2018-05-18T13:20:22.805Z,15.13
2018-05-18T13:22:50.640Z,17.80
2018-05-18T13:25:18.175Z,12.27
2018-05-18T13:27:45.726Z,10.97
2018-05-18T13:30:13.278Z,17.07
2018-05-18T13:32:41.690Z,12.97
2018-05-18T13:35:09.214Z,11.27
2018-05-18T13:37:37.624Z,10.10
2018-05-18T13:40:05.151Z,14.23
2018-05-18T13:42:33.468Z,12.03
2018-05-18T13:45:01.106Z,12.87
2018-05-18T13:47:28.558Z,15.60
2018-05-18T13:49:56.149Z,15.63
2018-05-18T13:52:23.672Z,18.20
2018-05-18T13:54:51.983Z,17.83
2018-05-18T13:57:19.515Z,13.53
2018-05-18T13:59:47.057Z,17.33
2018-05-18T14:02:15.499Z,13.30
2018-05-18T14:04:43.216Z,14.63
2018-05-18T14:07:10.754Z,11.70
2018-05-18T14:09:38.360Z,12.07
2018-05-18T14:12:05.942Z,14.10
2018-05-18T14:14:33.493Z,15.27
2018-05-18T14:17:01.072Z,12.37
2018-05-18T14:19:29.363Z,14.43
2018-05-18T14:21:56.900Z,13.37
2018-05-18T14:24:24.431Z,12.77
2018-05-18T14:26:51.969Z,16.27
2018-05-18T14:29:19.499Z,14.93
2018-05-18T14:31:47.327Z,14.80
2018-05-18T14:34:14.796Z,13.87
2018-05-18T14:36:42.317Z,15.13
2018-05-18T14:39:09.821Z,15.00
2018-05-18T14:41:37.357Z,19.20
2018-05-18T14:44:04.913Z,10.50
2018-05-18T14:46:32.451Z,10.83
2018-05-18T14:48:59.975Z,16.03
2018-05-18T14:51:28.887Z,12.33
2018-05-18T14:53:56.405Z,11.07
2018-05-18T14:56:23.993Z,15.77
2018-05-18T14:58:51.507Z,15.93
2018-05-18T15:01:19.052Z,14.30
2018-05-18T15:03:46.591Z,13.90
2018-05-18T15:06:14.120Z,14.10
2018-05-18T15:08:41.683Z,12.67
2018-05-18T15:11:09.309Z,13.23
2018-05-18T15:13:36.849Z,16.90
2018-05-18T15:16:04.401Z,14.27
2018-05-18T15:18:31.937Z,12.80
2018-05-18T15:20:59.469Z,13.20
2018-05-18T15:23:27.802Z,12.40
2018-05-18T15:25:55.338Z,15.53
2018-05-18T15:28:22.983Z,15.80
2018-05-18T15:30:50.529Z,14.33
2018-05-18T15:33:18.817Z,13.57
2018-05-18T15:35:47.282Z,13.33
2018-05-18T15:38:15.575Z,17.63
2018-05-18T15:40:43.091Z,13.30
2018-05-18T15:43:10.628Z,9.73
2018-05-18T15:45:38.173Z,14.40
2018-05-18T15:48:05.703Z,19.47
2018-05-18T15:50:33.252Z,10.77
2018-05-18T15:53:01.542Z,15.50
2018-05-18T15:55:29.087Z,13.27
2018-05-18T15:57:56.783Z,11.80
2018-05-18T16:00:24.307Z,13.13
2018-05-18T16:02:52.611Z,13.07
2018-05-18T16:05:20.158Z,21.20
2018-05-18T16:07:47.671Z,14.17
2018-05-18T16:10:15.334Z,13.70
2018-05-18T16:12:42.864Z,19.77
2018-05-18T16:15:10.436Z,13.53
2018-05-18T16:17:37.979Z,14.53
2018-05-18T16:20:05.505Z,11.90
2018-05-18T16:22:33.037Z,14.00
2018-05-18T16:25:00.572Z,14.63
2018-05-18T16:27:28.178Z,12.17
2018-05-18T16:29:55.768Z,15.07
2018-05-18T16:32:23.346Z,12.67
2018-05-18T16:34:50.989Z,14.60
2018-05-18T16:37:18.477Z,16.17
2018-05-18T16:39:46.013Z,16.80
2018-05-18T16:42:13.551Z,15.70
2018-05-18T16:44:41.119Z,19.30
2018-05-18T16:47:08.788Z,14.10
2018-05-18T16:49:36.332Z,10.50
2018-05-18T16:52:03.865Z,14.90
2018-05-18T16:54:31.541Z,12.73
2018-05-18T16:56:59.083Z,16.23
2018-05-18T16:59:26.684Z,14.50
2018-05-18T17:01:54.213Z,15.40
2018-05-18T17:04:21.771Z,13.80
2018-05-18T17:06:50.060Z,15.47
2018-05-18T17:09:17.597Z,17.13
2018-05-18T17:11:45.136Z,11.70
2018-05-18T17:14:12.751Z,11.63
2018-05-18T17:16:40.315Z,13.80
2018-05-18T17:19:07.850Z,11.37
2018-05-18T17:21:35.517Z,14.00
2018-05-18T17:24:03.189Z,14.53
2018-05-18T17:26:30.731Z,13.50
2018-05-18T17:28:58.262Z,15.37
2018-05-18T17:31:25.832Z,16.13
2018-05-18T17:33:54.110Z,15.17
2018-05-18T17:36:22.401Z,14.27
2018-05-18T17:38:50.680Z,15.20
2018-05-18T17:41:18.216Z,12.37
2018-05-18T17:43:45.759Z,14.83
2018-05-18T17:46:13.303Z,11.13
2018-05-18T17:48:40.857Z,16.00
2018-05-18T17:51:08.462Z,13.20
2018-05-18T17:53:36.058Z,12.60
2018-05-18T17:56:03.583Z,9.43
2018-05-18T17:58:31.165Z,12.03
2018-05-18T18:00:58.754Z,16.57
2018-05-18T18:03:26.332Z,13.43
2018-05-18T18:05:55.483Z,14.23
2018-05-18T18:08:23.115Z,11.00
2018-05-18T18:10:50.716Z,16.43
2018-05-18T18:13:18.299Z,14.87
2018-05-18T18:15:45.922Z,13.27
2018-05-18T18:18:13.688Z,10.97
2018-05-18T18:20:42.070Z,9.77
2018-05-18T18:23:09.730Z,13.23
2018-05-18T18:25:37.286Z,10.27
2018-05-18T18:28:04.867Z,12.67
2018-05-18T18:30:32.412Z,10.50
2018-05-18T18:33:00.000Z,10.30
2018-05-18T18:35:27.623Z,13.77
2018-05-18T18:37:55.196Z,11.57
2018-05-18T18:40:22.761Z,14.83
2018-05-18T18:42:50.405Z,15.50
2018-05-18T18:45:17.931Z,15.30
2018-05-18T18:47:46.329Z,12.73
2018-05-18T18:50:13.893Z,12.80
2018-05-18T18:52:41.423Z,9.23
2018-05-18T18:55:08.938Z,16.80
2018-05-18T18:57:36.483Z,12.73
2018-05-18T19:00:04.375Z,14.90
2018-05-18T19:02:31.901Z,12.47
2018-05-18T19:04:59.440Z,11.40
2018-05-18T19:07:27.782Z,10.50
2018-05-18T19:09:56.077Z,12.83
2018-05-18T19:12:23.619Z,19.73
2018-05-18T19:14:51.156Z,13.87
2018-05-18T19:17:18.716Z,13.30
2018-05-18T19:19:46.266Z,12.10
2018-05-18T19:22:13.772Z,11.80
2018-05-18T19:24:41.296Z,10.60
2018-05-18T19:27:08.834Z,10.37
2018-05-18T19:29:36.441Z,9.67
2018-05-18T19:32:03.918Z,17.53
2018-05-18T19:34:31.476Z,12.47
2018-05-18T19:36:59.009Z,12.53
2018-05-18T19:39:27.310Z,12.93
2018-05-18T19:41:55.624Z,11.40
2018-05-18T19:44:23.156Z,10.43
2018-05-18T19:46:50.687Z,10.73
2018-05-18T19:49:18.260Z,15.53
2018-05-18T19:51:45.794Z,13.77
2018-05-18T19:54:13.319Z,15.50
2018-05-18T19:56:40.837Z,14.63
2018-05-18T19:59:08.373Z,12.60
2018-05-18T20:01:35.919Z,13.17
2018-05-18T20:04:04.965Z,12.10
2018-05-18T20:06:32.558Z,15.00
2018-05-18T20:09:00.089Z,14.53
2018-05-18T20:11:27.680Z,15.63
2018-05-18T20:13:55.254Z,15.47
2018-05-18T20:16:22.806Z,13.27
2018-05-18T20:18:50.426Z,18.30
2018-05-18T20:21:17.964Z,15.83
2018-05-18T20:23:46.298Z,16.70
2018-05-18T20:26:13.834Z,15.87
2018-05-18T20:28:41.369Z,14.60
2018-05-18T20:31:08.928Z,14.70
2018-05-18T20:33:36.575Z,13.63
2018-05-18T20:36:04.124Z,11.80
2018-05-18T20:38:32.428Z,12.97
2018-05-18T20:40:59.993Z,13.83
2018-05-18T20:43:27.876Z,13.57
2018-05-18T20:45:55.689Z,15.60
2018-05-18T20:48:23.470Z,10.80
2018-05-18T20:50:51.833Z,10.70
2018-05-18T20:53:19.475Z,11.77
2018-05-18T20:55:47.125Z,17.73
2018-05-18T20:58:14.907Z,9.60
2018-05-18T21:00:43.243Z,12.53
2018-05-18T21:03:10.817Z,13.53
2018-05-18T21:05:38.413Z,11.80
2018-05-18T21:08:05.963Z,16.50
2018-05-18T21:10:34.975Z,12.43
2018-05-18T21:13:02.775Z,10.97
2018-05-18T21:15:30.403Z,12.73
2018-05-18T21:17:58.712Z,11.40
2018-05-18T21:20:26.231Z,11.80
2018-05-18T21:22:53.779Z,8.60
2018-05-18T21:25:21.324Z,8.73
2018-05-18T21:27:48.861Z,12.77
2018-05-18T21:30:16.710Z,12.73
2018-05-18T21:32:44.430Z,11.63
2018-05-18T21:35:12.779Z,15.67
2018-05-18T21:37:40.819Z,15.60
2018-05-18T21:40:08.370Z,12.57
2018-05-18T21:42:35.908Z,12.10
2018-05-18T21:45:03.458Z,10.23
2018-05-18T21:47:31.247Z,10.23
2018-05-18T21:49:59.534Z,11.07
2018-05-18T21:52:27.137Z,10.80
2018-05-18T21:54:54.711Z,12.37
2018-05-18T21:57:22.259Z,11.70
2018-05-18T21:59:49.881Z,13.00
2018-05-18T22:02:17.419Z,12.20
2018-05-18T22:04:45.049Z,13.10
2018-05-18T22:07:13.613Z,13.70
2018-05-18T22:09:41.207Z,9.20
2018-05-18T22:12:09.715Z,13.33
2018-05-18T22:14:37.301Z,11.97
2018-05-18T22:17:04.896Z,12.27
2018-05-18T22:19:32.507Z,12.27
2018-05-18T22:22:00.258Z,13.83
2018-05-18T22:24:28.012Z,12.43
2018-05-18T22:26:55.549Z,13.87
2018-05-18T22:29:23.285Z,10.33
2018-05-18T22:31:50.805Z,15.07
2018-05-18T22:34:18.327Z,13.33
2018-05-18T22:36:45.955Z,13.93
2018-05-18T22:39:14.179Z,10.53
2018-05-18T22:41:42.476Z,15.57
2018-05-18T22:44:10.757Z,13.80
2018-05-18T22:46:38.268Z,13.27
2018-05-18T22:49:05.801Z,11.77
2018-05-18T22:51:33.338Z,14.83
2018-05-18T22:54:00.971Z,12.73
2018-05-18T22:56:28.509Z,13.47
2018-05-18T22:58:56.038Z,16.30
2018-05-18T23:01:23.568Z,14.93
2018-05-18T23:03:51.194Z,15.67
2018-05-18T23:06:19.512Z,12.03
2018-05-18T23:08:47.027Z,12.07
2018-05-18T23:11:14.557Z,12.77
2018-05-18T23:13:42.105Z,15.90
2018-05-18T23:16:09.640Z,12.97
2018-05-18T23:18:37.165Z,11.63
2018-05-18T23:21:05.583Z,10.83
2018-05-18T23:23:33.124Z,11.80
2018-05-18T23:26:00.695Z,10.57
2018-05-18T23:28:28.225Z,13.07
2018-05-18T23:30:55.774Z,14.77
2018-05-18T23:33:23.295Z,11.73
2018-05-18T23:35:50.839Z,11.03
2018-05-18T23:38:18.583Z,11.37
2018-05-18T23:40:46.242Z,13.57
2018-05-18T23:43:13.782Z,15.97
2018-05-18T23:45:41.383Z,14.30
2018-05-18T23:48:08.932Z,14.30
2018-05-18T23:50:36.489Z,11.10
2018-05-18T23:53:04.031Z,11.93
2018-05-18T23:55:31.560Z,12.83
2018-05-18T23:57:59.252Z,11.50
